createdAt,value
2022-10-17T00:00:38.647Z,99.90
2022-10-17T00:01:40.561Z,99.90
2022-10-17T00:02:42.262Z,99.90
2022-10-17T00:03:43.972Z,99.90
2022-10-17T00:04:45.620Z,99.90
2022-10-17T00:05:49.031Z,99.90
2022-10-17T00:06:50.720Z,99.90
2022-10-17T00:07:53.481Z,99.90
2022-10-17T00:08:55.173Z,99.90
2022-10-17T00:09:57.084Z,99.90
2022-10-17T00:11:01.301Z,99.90
2022-10-17T00:12:03.390Z,99.90
2022-10-17T00:13:06.121Z,99.90
2022-10-17T00:14:07.847Z,99.90
2022-10-17T00:15:11.294Z,99.90
2022-10-17T00:16:13.637Z,99.90
2022-10-17T00:17:15.757Z,99.90
2022-10-17T00:18:17.454Z,99.90
2022-10-17T00:19:19.138Z,99.90
2022-10-17T00:20:20.804Z,99.90
2022-10-17T00:21:23.814Z,99.90
2022-10-17T00:22:25.670Z,99.90
2022-10-17T00:23:28.651Z,99.90
2022-10-17T00:24:31.846Z,99.90
2022-10-17T00:25:33.520Z,99.90
2022-10-17T00:26:35.349Z,99.90
2022-10-17T00:27:38.997Z,99.90
2022-10-17T00:28:40.993Z,99.90
2022-10-17T00:29:42.819Z,99.90
2022-10-17T00:30:44.542Z,99.90
2022-10-17T00:31:46.386Z,99.90
2022-10-17T00:32:48.096Z,99.90
2022-10-17T00:33:50.129Z,99.90
2022-10-17T00:34:51.833Z,99.90
2022-10-17T00:36:16.576Z,99.90
2022-10-17T00:37:18.253Z,99.90
2022-10-17T00:38:19.946Z,99.90
2022-10-17T00:39:21.635Z,99.90
2022-10-17T00:40:23.747Z,99.90
2022-10-17T00:41:28.649Z,99.90
2022-10-17T00:42:30.601Z,99.90
2022-10-17T00:43:51.082Z,99.90
2022-10-17T00:45:24.075Z,99.90
2022-10-17T00:46:28.799Z,99.90
2022-10-17T00:47:31.064Z,99.90
2022-10-17T00:48:32.823Z,99.90
2022-10-17T00:49:37.070Z,99.90
2022-10-17T00:50:41.681Z,99.90
2022-10-17T00:51:55.872Z,99.90
2022-10-17T00:53:02.629Z,99.90
2022-10-17T00:54:05.167Z,99.90
2022-10-17T00:55:29.365Z,99.90
2022-10-17T00:56:31.897Z,99.90
2022-10-17T00:57:33.898Z,99.90
2022-10-17T00:58:35.691Z,99.90
2022-10-17T00:59:39.767Z,99.90
2022-10-17T01:00:43.142Z,99.90
2022-10-17T01:02:00.730Z,99.90
2022-10-17T01:03:02.484Z,99.90
2022-10-17T01:04:04.370Z,99.90
2022-10-17T01:05:07.620Z,99.90
2022-10-17T01:06:09.305Z,99.90
2022-10-17T01:07:12.672Z,99.90
2022-10-17T01:08:14.687Z,99.90
2022-10-17T01:09:16.495Z,99.90
2022-10-17T01:10:19.135Z,99.90
2022-10-17T01:11:40.630Z,99.90
2022-10-17T01:12:50.178Z,99.90
2022-10-17T01:14:04.275Z,99.90
2022-10-17T01:15:39.605Z,99.90
2022-10-17T01:16:52.313Z,99.90
2022-10-17T01:18:19.270Z,99.90
2022-10-17T01:19:46.616Z,99.90
2022-10-17T01:20:51.007Z,99.90
2022-10-17T01:22:02.017Z,99.90
2022-10-17T01:23:14.155Z,99.90
2022-10-17T01:24:39.589Z,99.90
2022-10-17T01:26:00.244Z,99.90
2022-10-17T01:27:25.176Z,99.90
2022-10-17T01:28:44.764Z,99.90
2022-10-17T01:29:56.800Z,99.90
2022-10-17T01:32:39.077Z,99.90
2022-10-17T01:33:49.402Z,99.90
2022-10-17T01:34:56.056Z,99.90
2022-10-17T01:36:01.832Z,99.90
2022-10-17T01:37:16.345Z,99.90
2022-10-17T01:38:26.078Z,99.90
2022-10-17T01:39:38.491Z,99.90
2022-10-17T01:40:56.468Z,99.90
2022-10-17T01:42:07.241Z,99.90
2022-10-17T01:43:26.045Z,99.90
2022-10-17T01:44:33.516Z,99.90
2022-10-17T01:45:45.401Z,99.90
2022-10-17T01:46:53.754Z,99.90
2022-10-17T01:48:00.505Z,99.90
2022-10-17T01:49:04.964Z,99.90
2022-10-17T01:50:16.513Z,99.90
2022-10-17T01:51:27.652Z,99.90
2022-10-17T01:52:38.079Z,99.90
2022-10-17T01:53:45.752Z,99.90
2022-10-17T01:55:03.302Z,99.90
2022-10-17T01:56:09.692Z,99.90
2022-10-17T01:57:39.783Z,99.90
2022-10-17T01:58:51.173Z,99.90
2022-10-17T01:59:55.255Z,99.90
2022-10-17T02:01:01.678Z,99.90
2022-10-17T02:02:04.582Z,99.90
2022-10-17T02:03:09.509Z,99.90
2022-10-17T02:04:11.786Z,99.90
2022-10-17T02:05:13.497Z,99.90
2022-10-17T02:06:16.259Z,99.90
2022-10-17T02:07:18.352Z,99.90
2022-10-17T02:08:47.225Z,99.90
2022-10-17T02:09:49.148Z,99.90
2022-10-17T02:11:01.669Z,99.90
2022-10-17T02:12:37.680Z,99.90
2022-10-17T02:14:09.816Z,99.90
2022-10-17T02:15:29.798Z,99.90
2022-10-17T02:16:55.643Z,99.90
2022-10-17T02:18:19.459Z,99.90
2022-10-17T02:19:51.623Z,99.90
2022-10-17T02:21:00.841Z,99.90
2022-10-17T02:22:40.132Z,99.90
2022-10-17T02:23:57.152Z,99.90
2022-10-17T02:25:23.750Z,99.90
2022-10-17T02:26:54.891Z,99.90
2022-10-17T02:27:59.024Z,99.90
2022-10-17T02:29:30.949Z,99.90
2022-10-17T02:30:44.144Z,99.90
2022-10-17T02:31:55.144Z,99.90
2022-10-17T02:33:21.152Z,99.90
2022-10-17T02:34:25.977Z,99.90
2022-10-17T02:35:32.912Z,99.90
2022-10-17T02:36:41.859Z,99.90
2022-10-17T02:37:46.043Z,99.90
2022-10-17T02:38:50.260Z,99.90
2022-10-17T02:39:53.971Z,99.90
2022-10-17T02:40:56.343Z,99.90
2022-10-17T02:42:01.890Z,99.90
2022-10-17T02:43:04.081Z,99.90
2022-10-17T02:44:07.221Z,99.90
2022-10-17T02:45:10.098Z,99.90
2022-10-17T02:46:21.065Z,99.90
2022-10-17T02:47:46.084Z,99.90
2022-10-17T02:48:55.521Z,99.90
2022-10-17T02:50:01.240Z,99.90
2022-10-17T02:51:10.446Z,99.90
2022-10-17T02:52:22.312Z,99.90
2022-10-17T02:53:34.487Z,99.90
2022-10-17T02:54:57.714Z,99.90
2022-10-17T02:56:06.301Z,99.90
2022-10-17T02:57:25.080Z,99.90
2022-10-17T02:58:32.887Z,99.90
2022-10-17T02:59:36.979Z,99.90
2022-10-17T03:00:40.841Z,99.90
2022-10-17T03:01:42.900Z,99.90
2022-10-17T03:02:51.277Z,99.90
2022-10-17T03:04:09.299Z,99.90
2022-10-17T03:05:14.715Z,99.90
2022-10-17T03:06:18.263Z,99.90
2022-10-17T03:07:19.956Z,99.90
2022-10-17T03:08:22.724Z,99.90
2022-10-17T03:09:24.429Z,99.90
2022-10-17T03:10:26.576Z,99.90
2022-10-17T03:11:28.781Z,99.90
2022-10-17T03:12:31.246Z,99.90
2022-10-17T03:13:35.064Z,99.90
2022-10-17T03:14:39.239Z,99.90
2022-10-17T03:15:41.049Z,99.90
2022-10-17T03:16:43.163Z,99.90
2022-10-17T03:18:50.051Z,99.90
2022-10-17T03:19:52.000Z,99.90
2022-10-17T03:20:54.046Z,99.90
2022-10-17T03:21:56.626Z,99.90
2022-10-17T03:22:58.559Z,99.90
2022-10-17T03:24:00.198Z,99.90
2022-10-17T03:25:01.883Z,99.90
2022-10-17T03:26:05.628Z,99.90
2022-10-17T03:27:07.529Z,99.90
2022-10-17T03:28:11.635Z,99.90
2022-10-17T03:29:14.227Z,99.90
2022-10-17T03:30:16.169Z,99.90
2022-10-17T03:31:18.086Z,99.90
2022-10-17T03:32:20.239Z,99.90
2022-10-17T03:33:23.219Z,99.90
2022-10-17T03:34:27.108Z,99.90
2022-10-17T03:35:29.205Z,99.90
2022-10-17T03:36:30.876Z,99.90
2022-10-17T03:37:33.048Z,99.90
2022-10-17T03:38:35.834Z,99.90
2022-10-17T03:39:37.676Z,99.90
2022-10-17T03:40:39.348Z,99.90
2022-10-17T03:41:41.182Z,99.90
2022-10-17T03:42:43.073Z,99.90
2022-10-17T03:43:44.734Z,99.90
2022-10-17T03:44:46.592Z,99.90
2022-10-17T03:45:48.397Z,99.90
2022-10-17T03:46:50.456Z,99.90
2022-10-17T03:47:52.219Z,99.90
2022-10-17T03:48:54.391Z,99.90
2022-10-17T03:49:56.231Z,99.90
2022-10-17T03:51:03.199Z,99.90
2022-10-17T03:52:04.862Z,99.90
2022-10-17T03:53:06.719Z,99.90
2022-10-17T03:54:08.412Z,99.90
2022-10-17T03:55:10.223Z,99.90
2022-10-17T03:56:17.701Z,99.90
2022-10-17T03:57:20.647Z,99.90
2022-10-17T03:58:22.927Z,99.90
2022-10-17T03:59:25.426Z,99.90
2022-10-17T04:00:27.250Z,99.90
2022-10-17T04:01:29.225Z,99.90
2022-10-17T04:02:31.260Z,99.90
2022-10-17T04:03:33.328Z,99.90
2022-10-17T04:04:34.995Z,99.90
2022-10-17T04:05:36.776Z,99.90
2022-10-17T04:06:39.091Z,99.90
2022-10-17T04:07:40.746Z,99.90
2022-10-17T04:08:42.905Z,99.90
2022-10-17T04:09:45.159Z,99.90
2022-10-17T04:10:46.934Z,99.90
2022-10-17T04:11:48.622Z,99.90
2022-10-17T04:12:50.313Z,99.90
2022-10-17T04:13:57.540Z,99.90
2022-10-17T04:14:59.215Z,99.90
2022-10-17T04:16:06.598Z,99.90
2022-10-17T04:17:08.277Z,99.90
2022-10-17T04:18:10.109Z,99.90
2022-10-17T04:19:13.363Z,99.90
2022-10-17T04:20:15.123Z,99.90
2022-10-17T04:21:18.427Z,99.90
2022-10-17T04:22:20.149Z,99.90
2022-10-17T04:23:22.776Z,99.90
2022-10-17T04:24:26.130Z,99.90
2022-10-17T04:25:27.898Z,99.90
2022-10-17T04:26:31.326Z,99.90
2022-10-17T04:27:33.142Z,99.90
2022-10-17T04:29:41.331Z,99.90
2022-10-17T04:30:45.472Z,99.90
2022-10-17T04:31:47.669Z,99.90
2022-10-17T04:32:49.375Z,99.90
2022-10-17T04:33:51.099Z,99.90
2022-10-17T04:34:52.777Z,99.90
2022-10-17T04:35:59.287Z,99.90
2022-10-17T04:37:01.154Z,99.90
2022-10-17T04:38:02.816Z,99.90
2022-10-17T04:39:06.010Z,99.90
2022-10-17T04:40:08.676Z,99.90
2022-10-17T04:41:13.024Z,99.90
2022-10-17T04:42:14.828Z,99.90
2022-10-17T04:43:16.511Z,99.90
2022-10-17T04:44:18.578Z,99.90
2022-10-17T04:45:20.677Z,99.90
2022-10-17T04:46:22.696Z,99.90
2022-10-17T04:47:24.543Z,99.90
2022-10-17T04:48:26.700Z,99.90
2022-10-17T04:49:28.538Z,99.90
2022-10-17T04:50:30.439Z,99.90
2022-10-17T04:51:32.747Z,99.90
2022-10-17T04:52:37.608Z,99.90
2022-10-17T04:53:41.349Z,99.90
2022-10-17T04:54:43.144Z,99.90
2022-10-17T04:55:44.996Z,99.90
2022-10-17T04:56:47.674Z,99.90
2022-10-17T04:57:49.360Z,99.90
2022-10-17T04:58:51.436Z,99.90
2022-10-17T04:59:53.236Z,99.90
2022-10-17T05:00:55.173Z,99.90
2022-10-17T05:01:57.069Z,99.90
2022-10-17T05:02:58.723Z,99.90
2022-10-17T05:04:00.579Z,99.90
2022-10-17T05:05:02.255Z,99.90
2022-10-17T05:06:08.892Z,99.90
2022-10-17T05:07:10.929Z,99.90
2022-10-17T05:08:13.287Z,99.90
2022-10-17T05:09:16.217Z,99.90
2022-10-17T05:10:18.073Z,99.90
2022-10-17T05:11:25.694Z,99.90
2022-10-17T05:12:27.597Z,99.90
2022-10-17T05:13:29.684Z,99.90
2022-10-17T05:14:31.512Z,99.90
2022-10-17T05:15:33.352Z,99.90
2022-10-17T05:16:35.972Z,99.90
2022-10-17T05:17:37.852Z,99.90
2022-10-17T05:18:39.677Z,99.90
2022-10-17T05:19:41.468Z,99.90
2022-10-17T05:20:43.271Z,99.90
2022-10-17T05:21:45.311Z,99.90
2022-10-17T05:22:47.208Z,99.90
2022-10-17T05:23:49.408Z,99.90
2022-10-17T05:24:51.269Z,99.90
2022-10-17T05:25:56.030Z,99.90
2022-10-17T05:26:58.235Z,99.90
2022-10-17T05:27:59.948Z,99.90
2022-10-17T05:29:03.148Z,99.90
2022-10-17T05:30:06.185Z,99.90
2022-10-17T05:31:10.048Z,99.90
2022-10-17T05:32:11.917Z,99.90
2022-10-17T05:33:13.595Z,99.90
2022-10-17T05:34:15.413Z,99.90
2022-10-17T05:35:17.324Z,99.90
2022-10-17T05:36:19.357Z,99.90
2022-10-17T05:37:21.099Z,99.90
2022-10-17T05:38:22.928Z,99.90
2022-10-17T05:39:24.739Z,99.90
2022-10-17T05:40:26.752Z,99.90
2022-10-17T05:41:28.607Z,99.90
2022-10-17T05:42:30.659Z,99.90
2022-10-17T05:43:33.888Z,99.90
2022-10-17T05:44:35.703Z,99.90
2022-10-17T05:45:37.412Z,99.90
2022-10-17T05:46:39.754Z,99.90
2022-10-17T05:47:41.651Z,99.90
2022-10-17T05:48:43.474Z,99.90
2022-10-17T05:49:49.979Z,99.90
2022-10-17T05:51:01.777Z,99.90
2022-10-17T05:52:03.797Z,99.90
2022-10-17T05:53:05.630Z,99.90
2022-10-17T05:54:07.901Z,99.90
2022-10-17T05:55:10.453Z,99.90
2022-10-17T05:56:13.298Z,99.90
2022-10-17T05:57:15.117Z,99.90
2022-10-17T05:58:21.953Z,99.90
2022-10-17T05:59:28.913Z,99.90
2022-10-17T06:00:30.731Z,99.90
2022-10-17T06:01:32.808Z,99.90
2022-10-17T06:02:34.573Z,99.90
2022-10-17T06:03:36.702Z,99.90
2022-10-17T06:04:38.586Z,99.90
2022-10-17T06:05:40.247Z,99.90
2022-10-17T06:06:41.956Z,99.90
2022-10-17T06:07:44.167Z,99.90
2022-10-17T06:08:46.574Z,99.90
2022-10-17T06:09:48.235Z,99.90
2022-10-17T06:10:51.164Z,99.90
2022-10-17T06:11:52.886Z,99.90
2022-10-17T06:12:54.903Z,99.90
2022-10-17T06:13:57.182Z,99.90
2022-10-17T06:14:59.136Z,99.90
2022-10-17T06:16:00.920Z,99.90
2022-10-17T06:17:02.900Z,99.90
2022-10-17T06:18:04.756Z,99.90
2022-10-17T06:19:06.701Z,99.90
2022-10-17T06:20:09.118Z,99.90
2022-10-17T06:21:12.557Z,99.90
2022-10-17T06:22:14.632Z,99.90
2022-10-17T06:23:16.880Z,99.90
2022-10-17T06:24:18.760Z,99.90
2022-10-17T06:25:20.633Z,99.90
2022-10-17T06:26:22.468Z,99.90
2022-10-17T06:27:24.337Z,99.90
2022-10-17T06:28:26.284Z,99.90
2022-10-17T06:29:28.171Z,99.90
2022-10-17T06:30:30.058Z,99.90
2022-10-17T06:31:31.886Z,99.90
2022-10-17T06:32:33.759Z,99.90
2022-10-17T06:33:36.256Z,99.90
2022-10-17T06:34:38.158Z,99.90
2022-10-17T06:35:40.052Z,99.90
2022-10-17T06:36:41.953Z,99.90
2022-10-17T06:37:43.738Z,99.90
2022-10-17T06:38:46.209Z,99.90
2022-10-17T06:39:48.096Z,99.90
2022-10-17T06:40:50.289Z,99.90
2022-10-17T06:41:52.148Z,99.90
2022-10-17T06:42:53.916Z,99.90
2022-10-17T06:43:55.804Z,99.90
2022-10-17T06:44:57.675Z,99.90
2022-10-17T06:45:59.514Z,99.90
2022-10-17T06:47:01.782Z,99.90
2022-10-17T06:48:03.649Z,99.90
2022-10-17T06:49:06.298Z,99.90
2022-10-17T06:50:08.511Z,99.90
2022-10-17T06:51:11.506Z,99.90
2022-10-17T06:52:13.424Z,99.90
2022-10-17T06:53:15.273Z,99.90
2022-10-17T06:54:17.079Z,99.90
2022-10-17T06:55:22.593Z,99.90
2022-10-17T06:56:25.140Z,99.90
2022-10-17T06:57:28.140Z,99.90
2022-10-17T06:58:34.725Z,99.90
2022-10-17T06:59:36.764Z,99.90
2022-10-17T07:00:38.745Z,99.90
2022-10-17T07:01:43.256Z,99.90
2022-10-17T07:02:47.919Z,99.90
2022-10-17T07:03:50.292Z,99.90
2022-10-17T07:04:52.136Z,99.90
2022-10-17T07:05:55.498Z,99.90
2022-10-17T07:07:59.298Z,99.90
2022-10-17T07:09:02.859Z,99.90
2022-10-17T07:10:08.512Z,99.90
2022-10-17T07:11:15.465Z,99.90
2022-10-17T07:12:17.131Z,99.90
2022-10-17T07:13:19.776Z,99.90
2022-10-17T07:14:21.756Z,99.90
2022-10-17T07:15:23.427Z,99.90
2022-10-17T07:16:25.143Z,99.90
2022-10-17T07:17:27.250Z,99.90
2022-10-17T07:18:29.255Z,99.90
2022-10-17T07:19:31.140Z,99.90
2022-10-17T07:20:33.635Z,99.90
2022-10-17T07:21:38.297Z,99.90
2022-10-17T07:22:41.513Z,99.90
2022-10-17T07:23:43.583Z,99.90
2022-10-17T07:24:45.713Z,99.90
2022-10-17T07:25:47.573Z,99.90
2022-10-17T07:26:49.423Z,99.90
2022-10-17T07:27:52.526Z,99.90
2022-10-17T07:28:55.621Z,99.90
2022-10-17T07:29:57.693Z,99.90
2022-10-17T07:31:11.187Z,99.90
2022-10-17T07:32:13.116Z,99.90
2022-10-17T07:33:15.240Z,99.90
2022-10-17T07:34:17.382Z,99.90
2022-10-17T07:35:19.313Z,99.90
2022-10-17T07:36:21.280Z,99.90
2022-10-17T07:37:23.190Z,99.90
2022-10-17T07:38:25.046Z,99.90
2022-10-17T07:39:27.035Z,99.90
2022-10-17T07:40:28.729Z,99.90
2022-10-17T07:41:30.581Z,99.90
2022-10-17T07:42:33.702Z,99.90
2022-10-17T07:43:36.975Z,99.90
2022-10-17T07:44:38.805Z,99.90
2022-10-17T07:45:41.475Z,99.90
2022-10-17T07:46:43.589Z,99.90
2022-10-17T07:47:46.108Z,99.90
2022-10-17T07:48:47.996Z,99.90
2022-10-17T07:49:50.480Z,99.90
2022-10-17T07:50:52.650Z,99.90
2022-10-17T07:51:54.548Z,99.90
2022-10-17T07:52:56.505Z,99.90
2022-10-17T07:53:58.330Z,99.90
2022-10-17T07:55:00.882Z,99.90
2022-10-17T07:56:12.551Z,99.90
2022-10-17T07:57:14.734Z,99.90
2022-10-17T07:58:17.134Z,99.90
2022-10-17T07:59:19.445Z,99.90
2022-10-17T08:00:21.411Z,99.90
2022-10-17T08:01:23.405Z,99.90
2022-10-17T08:02:27.415Z,99.90
2022-10-17T08:03:29.819Z,99.90
2022-10-17T08:04:31.754Z,99.90
2022-10-17T08:05:34.530Z,99.90
2022-10-17T08:06:36.399Z,99.90
2022-10-17T08:07:39.185Z,99.90
2022-10-17T08:08:41.944Z,99.90
2022-10-17T08:09:45.421Z,99.90
2022-10-17T08:10:47.286Z,99.90
2022-10-17T08:11:49.198Z,99.90
2022-10-17T08:12:51.325Z,99.90
2022-10-17T08:13:53.750Z,99.90
2022-10-17T08:14:55.604Z,99.90
2022-10-17T08:16:01.913Z,99.90
2022-10-17T08:17:03.810Z,99.90
2022-10-17T08:18:05.969Z,99.90
2022-10-17T08:20:11.569Z,99.90
2022-10-17T08:21:13.708Z,99.90
2022-10-17T08:22:15.588Z,99.90
2022-10-17T08:23:18.095Z,99.90
2022-10-17T08:24:21.797Z,99.90
2022-10-17T08:25:23.883Z,99.90
2022-10-17T08:26:25.751Z,99.90
2022-10-17T08:27:29.016Z,99.90
2022-10-17T08:28:32.165Z,99.90
2022-10-17T08:29:34.357Z,99.90
2022-10-17T08:30:36.405Z,99.90
2022-10-17T08:31:38.638Z,99.90
2022-10-17T08:32:40.651Z,99.90
2022-10-17T08:33:42.638Z,99.90
2022-10-17T08:34:44.808Z,99.90
2022-10-17T08:35:49.619Z,99.90
2022-10-17T08:36:52.521Z,99.90
2022-10-17T08:37:54.385Z,99.90
2022-10-17T08:38:56.278Z,99.90
2022-10-17T08:39:58.225Z,99.90
2022-10-17T08:41:03.533Z,99.90
2022-10-17T08:42:34.746Z,99.90
2022-10-17T08:43:42.080Z,99.90
2022-10-17T08:44:56.425Z,99.90
2022-10-17T08:46:03.594Z,99.90
2022-10-17T08:47:13.139Z,99.90
2022-10-17T08:48:18.965Z,99.90
2022-10-17T08:49:32.339Z,99.90
2022-10-17T08:50:40.771Z,99.90
2022-10-17T08:51:54.779Z,99.90
2022-10-17T08:53:18.303Z,99.90
2022-10-17T08:54:31.429Z,99.90
2022-10-17T08:55:45.280Z,99.90
2022-10-17T08:56:50.577Z,99.90
2022-10-17T08:57:52.562Z,99.90
2022-10-17T08:58:54.380Z,99.90
2022-10-17T08:59:57.184Z,99.90
2022-10-17T09:01:01.894Z,99.90
2022-10-17T09:02:36.124Z,99.90
2022-10-17T09:03:59.657Z,99.90
2022-10-17T09:05:10.158Z,99.90
2022-10-17T09:06:20.914Z,99.90
2022-10-17T09:07:47.592Z,99.90
2022-10-17T09:09:27.018Z,99.90
2022-10-17T09:10:44.769Z,99.90
2022-10-17T09:12:04.483Z,99.90
2022-10-17T09:13:27.245Z,99.90
2022-10-17T09:14:48.791Z,99.90
2022-10-17T09:16:17.978Z,99.90
2022-10-17T09:17:29.825Z,99.90
2022-10-17T09:18:43.135Z,99.90
2022-10-17T09:20:20.415Z,99.90
2022-10-17T09:21:39.875Z,99.90
2022-10-17T09:23:04.047Z,99.90
2022-10-17T09:24:15.721Z,99.90
2022-10-17T09:25:20.739Z,99.90
2022-10-17T09:26:24.712Z,99.90
2022-10-17T09:27:35.484Z,99.90
2022-10-17T09:28:41.854Z,99.90
2022-10-17T09:29:48.862Z,99.90
2022-10-17T09:31:24.680Z,99.90
2022-10-17T09:32:27.027Z,99.90
2022-10-17T09:33:53.774Z,99.90
2022-10-17T09:34:56.704Z,99.90
2022-10-17T09:35:59.911Z,99.90
2022-10-17T09:37:02.578Z,99.90
2022-10-17T09:38:05.126Z,99.90
2022-10-17T09:39:22.607Z,99.90
2022-10-17T09:40:31.816Z,99.90
2022-10-17T09:41:46.081Z,99.90
2022-10-17T09:42:51.027Z,99.90
2022-10-17T09:43:57.099Z,99.90
2022-10-17T09:45:01.560Z,99.90
2022-10-17T09:46:13.238Z,99.90
2022-10-17T09:47:34.240Z,99.90
2022-10-17T09:48:42.636Z,99.90
2022-10-17T09:49:47.234Z,99.90
2022-10-17T09:50:57.823Z,99.90
2022-10-17T09:52:25.655Z,99.90
2022-10-17T09:53:33.841Z,99.90
2022-10-17T09:54:41.419Z,99.90
2022-10-17T09:55:51.063Z,99.90
2022-10-17T09:57:03.764Z,99.90
2022-10-17T09:58:07.315Z,99.90
2022-10-17T09:59:13.773Z,99.90
2022-10-17T10:00:25.959Z,99.90
2022-10-17T10:01:30.923Z,99.90
2022-10-17T10:02:36.371Z,99.90
2022-10-17T10:03:38.030Z,99.90
2022-10-17T10:05:17.872Z,99.90
2022-10-17T10:06:20.816Z,99.90
2022-10-17T10:07:28.252Z,99.90
2022-10-17T10:08:37.067Z,99.90
2022-10-17T10:09:40.256Z,99.90
2022-10-17T10:10:44.014Z,99.90
2022-10-17T10:11:52.503Z,99.90
2022-10-17T10:13:03.327Z,99.90
2022-10-17T10:14:13.367Z,99.90
2022-10-17T10:15:43.321Z,99.90
2022-10-17T10:16:47.053Z,99.90
2022-10-17T10:17:49.050Z,99.90
2022-10-17T10:18:51.862Z,99.80
2022-10-17T10:19:54.176Z,99.10
2022-10-17T10:21:11.473Z,99.10
2022-10-17T10:22:17.811Z,98.70
2022-10-17T10:23:22.174Z,99.00
2022-10-17T10:24:30.330Z,98.90
2022-10-17T10:25:33.466Z,98.00
2022-10-17T10:26:45.949Z,98.00
2022-10-17T10:27:47.904Z,97.90
2022-10-17T10:29:00.364Z,97.80
2022-10-17T10:30:03.172Z,97.80
2022-10-17T10:31:09.634Z,97.80
2022-10-17T10:32:15.940Z,97.70
2022-10-17T10:33:21.951Z,97.40
2022-10-17T10:34:29.763Z,97.00
2022-10-17T10:35:36.859Z,97.10
2022-10-17T10:36:52.014Z,96.10
2022-10-17T10:37:56.336Z,96.20
2022-10-17T10:39:01.255Z,96.50
2022-10-17T10:40:37.241Z,96.10
2022-10-17T10:41:48.700Z,95.10
2022-10-17T10:42:52.863Z,95.40
2022-10-17T10:43:55.456Z,95.40
2022-10-17T10:45:23.661Z,94.80
2022-10-17T10:46:31.001Z,92.30
2022-10-17T10:47:33.369Z,84.30
2022-10-17T10:48:36.896Z,79.30
2022-10-17T10:49:39.296Z,71.50
2022-10-17T10:50:45.604Z,65.60
2022-10-17T10:51:49.740Z,62.90
2022-10-17T10:52:55.738Z,61.30
2022-10-17T10:54:13.052Z,60.30
2022-10-17T10:55:27.829Z,57.00
2022-10-17T10:56:45.873Z,57.30
2022-10-17T10:57:51.928Z,55.50
2022-10-17T10:59:08.519Z,55.70
2022-10-17T11:00:15.478Z,54.10
2022-10-17T11:01:25.972Z,52.60
2022-10-17T11:02:57.149Z,53.10
2022-10-17T11:04:28.054Z,52.80
2022-10-17T11:05:37.515Z,53.90
2022-10-17T11:06:44.307Z,53.20
2022-10-17T11:08:18.434Z,52.40
2022-10-17T11:09:46.544Z,50.10
2022-10-17T11:11:13.862Z,51.50
2022-10-17T11:12:34.058Z,49.70
2022-10-17T11:13:50.684Z,50.80
2022-10-17T11:15:17.215Z,50.70
2022-10-17T11:16:27.834Z,50.20
2022-10-17T11:17:42.143Z,50.30
2022-10-17T11:19:08.327Z,49.50
2022-10-17T11:20:12.667Z,49.10
2022-10-17T11:21:37.349Z,49.20
2022-10-17T11:22:47.032Z,49.50
2022-10-17T11:24:06.844Z,49.20
2022-10-17T11:25:32.931Z,49.80
2022-10-17T11:26:46.318Z,49.70
2022-10-17T11:27:48.131Z,48.10
2022-10-17T11:28:49.842Z,47.00
2022-10-17T11:29:52.052Z,46.10
2022-10-17T11:31:09.245Z,45.70
2022-10-17T11:32:19.704Z,45.00
2022-10-17T11:33:29.768Z,44.50
2022-10-17T11:34:36.241Z,44.20
2022-10-17T11:35:42.592Z,45.30
2022-10-17T11:36:46.466Z,46.50
2022-10-17T11:38:26.683Z,46.00
2022-10-17T11:39:52.947Z,45.70
2022-10-17T11:40:58.378Z,43.70
2022-10-17T11:42:07.218Z,43.90
2022-10-17T11:43:26.635Z,44.40
2022-10-17T11:44:42.449Z,45.00
2022-10-17T11:45:48.634Z,44.10
2022-10-17T11:47:00.531Z,45.20
2022-10-17T11:48:24.872Z,44.30
2022-10-17T11:49:38.643Z,43.10
2022-10-17T11:52:37.678Z,43.40
2022-10-17T11:54:11.568Z,44.80
2022-10-17T11:55:21.422Z,44.60
2022-10-17T11:56:32.259Z,44.70
2022-10-17T11:58:01.485Z,43.70
2022-10-17T11:59:17.625Z,42.60
2022-10-17T12:00:54.610Z,43.70
2022-10-17T12:02:14.198Z,41.70
2022-10-17T12:03:37.558Z,42.10
2022-10-17T12:05:05.777Z,42.40
2022-10-17T12:06:14.549Z,42.30
2022-10-17T12:07:31.196Z,42.80
2022-10-17T12:08:49.551Z,42.80
2022-10-17T12:10:39.861Z,43.70
2022-10-17T12:12:04.287Z,42.60
2022-10-17T12:13:33.663Z,42.90
2022-10-17T12:14:41.210Z,42.20
2022-10-17T12:15:46.547Z,42.40
2022-10-17T12:16:48.810Z,42.30
2022-10-17T12:18:02.555Z,42.00
2022-10-17T12:19:06.584Z,41.20
2022-10-17T12:20:30.443Z,41.40
2022-10-17T12:22:17.998Z,42.00
2022-10-17T12:23:26.104Z,43.10
2022-10-17T12:24:40.020Z,43.90
2022-10-17T12:25:52.679Z,44.10
2022-10-17T12:26:56.466Z,43.90
2022-10-17T12:28:13.352Z,44.70
2022-10-17T12:29:29.063Z,46.30
2022-10-17T12:30:31.174Z,47.50
2022-10-17T12:31:34.301Z,48.70
2022-10-17T12:33:00.404Z,49.70
2022-10-17T12:34:00.928Z,50.50
2022-10-17T12:35:03.051Z,51.30
2022-10-17T12:36:17.184Z,51.40
2022-10-17T12:37:57.391Z,51.30
2022-10-17T12:39:03.906Z,51.40
2022-10-17T12:40:37.657Z,52.00
2022-10-17T12:41:40.905Z,52.90
2022-10-17T12:42:48.775Z,53.20
2022-10-17T12:43:54.443Z,53.30
2022-10-17T12:44:56.321Z,53.60
2022-10-17T12:45:59.135Z,54.10
2022-10-17T12:47:09.623Z,54.10
2022-10-17T12:48:11.689Z,54.20
2022-10-17T12:49:22.445Z,53.90
2022-10-17T12:51:34.835Z,53.90
2022-10-17T12:52:26.769Z,54.50
2022-10-17T12:53:57.682Z,55.10
2022-10-17T12:55:13.068Z,55.50
2022-10-17T12:56:18.393Z,55.80
2022-10-17T12:57:31.568Z,55.90
2022-10-17T12:58:35.409Z,56.00
2022-10-17T12:59:38.062Z,56.20
2022-10-17T13:01:23.858Z,56.00
2022-10-17T13:02:24.425Z,56.20
2022-10-17T13:03:30.630Z,56.70
2022-10-17T13:04:36.433Z,57.00
2022-10-17T13:05:43.831Z,57.10
2022-10-17T13:06:48.476Z,57.20
2022-10-17T13:07:52.464Z,57.30
2022-10-17T13:09:05.691Z,57.00
2022-10-17T13:10:19.148Z,56.80
2022-10-17T13:11:25.738Z,57.10
2022-10-17T13:12:28.616Z,56.90
2022-10-17T13:13:52.229Z,57.00
2022-10-17T13:14:55.344Z,57.00
2022-10-17T13:15:57.178Z,57.20
2022-10-17T13:17:01.682Z,57.40
2022-10-17T13:18:04.133Z,57.30
2022-10-17T13:19:18.256Z,57.20
2022-10-17T13:20:28.970Z,57.30
2022-10-17T13:21:33.234Z,57.50
2022-10-17T13:22:35.428Z,57.50
2022-10-17T13:23:40.947Z,57.70
2022-10-17T13:24:46.963Z,57.40
2022-10-17T13:26:01.882Z,57.90
2022-10-17T13:27:05.443Z,57.80
2022-10-17T13:28:13.748Z,57.70
2022-10-17T13:29:16.409Z,57.60
2022-10-17T13:30:30.886Z,57.80
2022-10-17T13:31:44.981Z,58.00
2022-10-17T13:32:47.030Z,58.10
2022-10-17T13:33:49.109Z,58.10
2022-10-17T13:35:11.083Z,58.10
2022-10-17T13:36:17.078Z,58.40
2022-10-17T13:37:19.064Z,58.30
2022-10-17T13:38:26.485Z,58.40
2022-10-17T13:39:52.571Z,58.60
2022-10-17T13:41:05.855Z,58.50
2022-10-17T13:42:29.354Z,58.50
2022-10-17T13:43:32.450Z,58.40
2022-10-17T13:44:37.067Z,58.60
2022-10-17T13:45:39.699Z,58.80
2022-10-17T13:46:42.988Z,58.70
2022-10-17T13:47:46.043Z,58.90
2022-10-17T13:48:49.911Z,58.90
2022-10-17T13:49:55.198Z,58.40
2022-10-17T13:51:03.020Z,58.30
2022-10-17T13:52:07.993Z,58.30
2022-10-17T13:53:32.588Z,58.20
2022-10-17T13:54:40.355Z,58.50
2022-10-17T13:56:34.213Z,58.70
2022-10-17T13:57:36.123Z,58.80
2022-10-17T13:58:46.534Z,58.70
2022-10-17T13:59:56.074Z,58.80
2022-10-17T14:00:58.495Z,58.80
2022-10-17T14:02:02.089Z,58.70
2022-10-17T14:03:16.167Z,58.90
2022-10-17T14:06:21.171Z,59.10
2022-10-17T14:08:17.835Z,59.30
2022-10-17T14:09:51.046Z,59.60
2022-10-17T14:11:47.200Z,59.60
2022-10-17T14:13:38.929Z,60.00
2022-10-17T14:15:09.659Z,60.20
2022-10-17T14:16:17.122Z,60.30
2022-10-17T14:20:26.569Z,60.60
2022-10-17T14:21:44.896Z,60.90
2022-10-17T14:23:20.990Z,61.20
2022-10-17T14:24:27.999Z,61.70
2022-10-17T14:25:31.843Z,61.80
2022-10-17T14:27:01.348Z,61.50
2022-10-17T14:28:11.139Z,61.60
2022-10-17T14:29:24.432Z,61.70
2022-10-17T14:30:51.715Z,61.70
2022-10-17T14:31:50.799Z,61.80
2022-10-17T14:32:58.992Z,62.20
2022-10-17T14:34:03.005Z,62.30
2022-10-17T14:35:30.301Z,62.30
2022-10-17T14:36:34.784Z,62.50
2022-10-17T14:37:45.318Z,62.70
2022-10-17T14:38:56.189Z,63.00
2022-10-17T14:40:04.284Z,63.20
2022-10-17T14:42:40.308Z,63.50
2022-10-17T14:43:42.201Z,63.60
2022-10-17T14:45:08.314Z,63.70
2022-10-17T14:46:16.022Z,63.80
2022-10-17T14:47:43.970Z,64.00
2022-10-17T14:48:48.203Z,64.20
2022-10-17T14:49:54.522Z,64.50